createdAt,value
2022-11-08T00:00:58.069Z,20.83
2022-11-08T00:03:29.555Z,17.98
2022-11-08T00:06:16.022Z,21.77
2022-11-08T00:09:01.622Z,16.60
2022-11-08T00:11:47.159Z,15.52
2022-11-08T00:14:13.832Z,16.70
2022-11-08T00:16:41.020Z,16.30
2022-11-08T00:19:16.645Z,22.88
2022-11-08T00:21:46.139Z,16.33
2022-11-08T00:24:12.784Z,17.17
2022-11-08T00:26:39.368Z,19.58
2022-11-08T00:29:08.295Z,18.40
2022-11-08T00:31:38.376Z,15.48
2022-11-08T00:34:05.457Z,20.05
2022-11-08T00:36:35.280Z,18.48
2022-11-08T00:39:02.038Z,17.85
2022-11-08T00:41:32.983Z,17.65
2022-11-08T00:44:08.338Z,18.47
2022-11-08T00:46:41.527Z,19.80
2022-11-08T00:49:11.431Z,17.63
2022-11-08T00:51:44.460Z,17.13
2022-11-08T00:54:14.297Z,15.73
2022-11-08T00:56:41.514Z,16.75
2022-11-08T00:59:08.270Z,16.05
2022-11-08T01:01:37.900Z,17.83
2022-11-08T01:04:05.108Z,13.48
2022-11-08T01:06:31.829Z,18.52
2022-11-08T01:08:58.504Z,17.55
2022-11-08T01:11:29.129Z,21.40
2022-11-08T01:14:02.409Z,25.40
2022-11-08T01:16:32.276Z,17.98
2022-11-08T01:19:02.608Z,18.65
2022-11-08T01:21:32.324Z,18.35
2022-11-08T01:23:58.892Z,21.80
2022-11-08T01:26:29.420Z,17.23
2022-11-08T01:28:57.803Z,17.10
2022-11-08T01:31:27.631Z,17.65
2022-11-08T01:33:54.560Z,16.88
2022-11-08T01:36:26.678Z,15.35
2022-11-08T01:38:55.778Z,15.65
2022-11-08T01:41:26.106Z,16.83
2022-11-08T01:44:02.306Z,20.75
2022-11-08T01:46:37.273Z,17.17
2022-11-08T01:49:23.333Z,20.15
2022-11-08T01:52:12.622Z,16.65
2022-11-08T01:55:15.293Z,18.00
2022-11-08T01:58:06.603Z,16.85
2022-11-08T02:00:34.184Z,18.92
2022-11-08T02:03:05.533Z,22.40
2022-11-08T02:05:35.144Z,18.38
2022-11-08T02:08:22.742Z,16.95
2022-11-08T02:10:52.127Z,20.85
2022-11-08T02:13:33.384Z,16.48
2022-11-08T02:16:07.482Z,14.47
2022-11-08T02:18:37.655Z,17.60
2022-11-08T02:21:16.830Z,17.80
2022-11-08T02:23:49.344Z,16.25
2022-11-08T02:26:22.983Z,18.92
2022-11-08T02:28:54.148Z,18.20
2022-11-08T02:31:22.909Z,16.73
2022-11-08T02:33:50.980Z,16.95
2022-11-08T02:36:24.704Z,16.75
2022-11-08T02:39:00.365Z,14.05
2022-11-08T02:41:31.571Z,15.18
2022-11-08T02:43:58.141Z,17.20
2022-11-08T02:46:27.747Z,17.25
2022-11-08T02:48:54.326Z,15.82
2022-11-08T02:51:23.178Z,16.00
2022-11-08T02:53:50.483Z,21.60
2022-11-08T02:56:17.597Z,14.48
2022-11-08T02:58:46.536Z,17.52
2022-11-08T03:01:18.928Z,16.55
2022-11-08T03:03:50.025Z,18.40
2022-11-08T03:06:18.861Z,15.57
2022-11-08T03:08:45.517Z,17.38
2022-11-08T03:11:19.542Z,17.58
2022-11-08T03:13:46.632Z,13.93
2022-11-08T03:16:14.004Z,14.25
2022-11-08T03:18:42.591Z,11.45
2022-11-08T03:21:09.208Z,12.68
2022-11-08T03:23:38.679Z,16.45
2022-11-08T03:26:07.716Z,16.25
2022-11-08T03:28:36.276Z,17.40
2022-11-08T03:31:03.800Z,18.13
2022-11-08T03:33:32.549Z,14.68
2022-11-08T03:35:59.706Z,18.48
2022-11-08T03:38:26.395Z,13.05
2022-11-08T03:40:53.303Z,19.10
2022-11-08T03:43:19.952Z,15.45
2022-11-08T03:45:49.562Z,16.88
2022-11-08T03:48:19.174Z,12.80
2022-11-08T03:50:46.080Z,12.77
2022-11-08T03:53:15.745Z,11.95
2022-11-08T03:55:42.404Z,13.68
2022-11-08T03:58:09.019Z,16.52
2022-11-08T04:00:38.907Z,21.83
2022-11-08T04:03:05.600Z,14.25
2022-11-08T04:05:34.504Z,13.77
2022-11-08T04:08:02.285Z,14.52
2022-11-08T04:10:32.016Z,15.88
2022-11-08T04:13:22.256Z,12.27
2022-11-08T04:15:55.410Z,14.10
2022-11-08T04:18:41.236Z,13.27
2022-11-08T04:21:22.608Z,12.15
2022-11-08T04:23:51.140Z,14.30
2022-11-08T04:26:19.437Z,14.43
2022-11-08T04:28:49.100Z,14.25
2022-11-08T04:31:18.566Z,15.02
2022-11-08T04:33:45.716Z,14.52
2022-11-08T04:36:15.688Z,16.27
2022-11-08T04:38:49.697Z,14.93
2022-11-08T04:41:18.746Z,17.33
2022-11-08T04:43:45.680Z,14.15
2022-11-08T04:46:14.446Z,12.25
2022-11-08T04:48:48.539Z,12.23
2022-11-08T04:51:28.882Z,22.13
2022-11-08T04:53:57.620Z,17.08
2022-11-08T04:56:28.673Z,15.95
2022-11-08T04:58:57.994Z,13.23
2022-11-08T05:01:27.463Z,14.50
2022-11-08T05:03:54.803Z,17.23
2022-11-08T05:06:28.089Z,18.17
2022-11-08T05:08:56.745Z,12.82
2022-11-08T05:11:25.882Z,14.57
2022-11-08T05:13:52.865Z,16.15
2022-11-08T05:16:23.817Z,10.95
2022-11-08T05:18:52.952Z,14.23
2022-11-08T05:21:39.861Z,14.38
2022-11-08T05:24:08.811Z,14.73
2022-11-08T05:26:36.950Z,13.65
2022-11-08T05:29:04.676Z,14.95
2022-11-08T05:31:31.899Z,13.45
2022-11-08T05:34:00.164Z,20.13
2022-11-08T05:36:28.092Z,13.57
2022-11-08T05:38:58.145Z,14.52
2022-11-08T05:41:29.410Z,15.05
2022-11-08T05:43:56.735Z,15.52
2022-11-08T05:46:23.964Z,18.92
2022-11-08T05:48:50.921Z,21.55
2022-11-08T05:51:18.989Z,16.42
2022-11-08T05:53:47.232Z,16.63
2022-11-08T05:56:16.900Z,18.15
2022-11-08T05:58:53.248Z,13.57
2022-11-08T06:01:23.204Z,19.70
2022-11-08T06:03:50.296Z,17.48
2022-11-08T06:06:23.535Z,15.07
2022-11-08T06:08:51.851Z,15.95
2022-11-08T06:11:25.418Z,15.35
2022-11-08T06:16:21.784Z,21.02
2022-11-08T06:19:09.221Z,16.77
2022-11-08T06:21:38.860Z,16.92
2022-11-08T06:24:06.103Z,18.55
2022-11-08T06:26:35.349Z,16.20
2022-11-08T06:29:04.792Z,21.67
2022-11-08T06:31:31.328Z,21.75
2022-11-08T06:34:02.285Z,15.95
2022-11-08T06:36:28.901Z,14.45
2022-11-08T06:38:56.704Z,16.95
2022-11-08T06:41:23.816Z,13.65
2022-11-08T06:43:53.374Z,12.60
2022-11-08T06:46:22.615Z,14.85
2022-11-08T06:48:49.222Z,14.80
2022-11-08T06:51:15.963Z,15.55
2022-11-08T06:53:43.290Z,16.90
2022-11-08T06:56:11.133Z,14.93
2022-11-08T06:58:38.405Z,13.70
2022-11-08T07:01:06.734Z,15.80
2022-11-08T07:03:35.428Z,14.38
2022-11-08T07:06:04.358Z,18.33
2022-11-08T07:08:45.459Z,10.57
2022-11-08T07:11:12.128Z,14.60
2022-11-08T07:13:38.603Z,16.48
2022-11-08T07:16:05.432Z,20.83
2022-11-08T07:18:32.070Z,16.95
2022-11-08T07:21:00.366Z,13.82
2022-11-08T07:23:29.455Z,14.10
2022-11-08T07:25:55.941Z,12.77
2022-11-08T07:28:28.703Z,13.55
2022-11-08T07:31:02.399Z,10.85
2022-11-08T07:33:35.702Z,12.50
2022-11-08T07:36:02.723Z,12.48
2022-11-08T07:38:32.463Z,13.80
2022-11-08T07:41:05.554Z,9.50
2022-11-08T07:43:48.703Z,13.43
2022-11-08T07:46:17.514Z,16.75
2022-11-08T07:51:24.560Z,23.10
2022-11-08T07:53:51.023Z,21.38
2022-11-08T07:56:17.479Z,17.40
2022-11-08T07:58:44.078Z,22.40
2022-11-08T08:01:10.610Z,19.75
2022-11-08T08:03:47.653Z,21.27
2022-11-08T08:06:14.240Z,15.40
2022-11-08T08:08:40.912Z,8.68
2022-11-08T08:11:07.844Z,9.18
2022-11-08T08:13:37.580Z,15.88
2022-11-08T08:16:07.025Z,11.32
2022-11-08T08:18:33.474Z,6.13
2022-11-08T08:20:59.977Z,8.40
2022-11-08T08:23:26.803Z,6.10
2022-11-08T08:25:53.503Z,6.10
2022-11-08T08:28:20.132Z,7.35
2022-11-08T08:30:50.878Z,7.13
2022-11-08T08:33:29.488Z,7.40
2022-11-08T08:35:56.859Z,8.88
2022-11-08T08:38:25.616Z,7.07
2022-11-08T08:40:52.331Z,9.75
2022-11-08T08:43:20.068Z,16.23
2022-11-08T08:45:47.393Z,10.90
2022-11-08T08:48:19.197Z,22.33
2022-11-08T08:50:47.514Z,16.90
2022-11-08T08:53:14.018Z,14.80
2022-11-08T08:55:46.005Z,13.50
2022-11-08T08:58:13.770Z,10.68
2022-11-08T09:03:32.577Z,20.55
2022-11-08T09:06:05.334Z,19.35
2022-11-08T09:08:32.070Z,16.45
2022-11-08T09:11:00.940Z,13.02
2022-11-08T09:13:30.939Z,20.88
2022-11-08T09:15:58.944Z,23.42
2022-11-08T09:18:25.641Z,19.73
2022-11-08T09:20:52.204Z,17.17
2022-11-08T09:23:19.170Z,13.98
2022-11-08T09:25:46.074Z,19.40
2022-11-08T09:28:13.848Z,25.33
2022-11-08T09:30:40.569Z,18.98
2022-11-08T09:33:07.596Z,31.80
2022-11-08T09:35:34.311Z,32.38
2022-11-08T09:38:00.865Z,27.70
2022-11-08T09:40:40.939Z,19.50
2022-11-08T09:43:59.353Z,19.95
2022-11-08T09:46:57.962Z,35.28
2022-11-08T09:49:47.123Z,28.40
2022-11-08T09:52:23.563Z,23.77
2022-11-08T09:54:54.219Z,29.27
2022-11-08T09:57:29.631Z,31.70
2022-11-08T10:03:36.968Z,31.73
2022-11-08T10:06:28.455Z,30.63
2022-11-08T10:09:32.579Z,26.77
2022-11-08T10:11:59.062Z,36.30
2022-11-08T10:14:25.583Z,24.23
2022-11-08T10:17:01.543Z,20.02
2022-11-08T10:19:49.232Z,32.25
2022-11-08T10:22:44.240Z,23.25
2022-11-08T10:25:24.593Z,29.20
2022-11-08T10:27:55.827Z,33.25
2022-11-08T10:30:32.485Z,30.02
2022-11-08T10:32:59.044Z,34.15
2022-11-08T10:35:30.504Z,32.78
2022-11-08T10:38:00.949Z,25.75
2022-11-08T10:40:52.620Z,28.88
2022-11-08T10:43:35.375Z,17.58
2022-11-08T10:46:29.992Z,28.83
2022-11-08T10:49:10.819Z,37.53
2022-11-08T10:51:42.124Z,27.80
2022-11-08T10:54:08.848Z,32.22
2022-11-08T10:56:56.038Z,30.52
2022-11-08T10:59:32.914Z,37.60
2022-11-08T11:02:01.659Z,31.90
2022-11-08T11:04:35.540Z,29.30
2022-11-08T11:07:24.720Z,27.75
2022-11-08T11:09:54.054Z,24.83
2022-11-08T11:12:20.613Z,27.88
2022-11-08T11:14:56.889Z,27.45
2022-11-08T11:17:38.920Z,30.83
2022-11-08T11:20:20.619Z,28.80
2022-11-08T11:22:50.827Z,23.20
2022-11-08T11:25:20.959Z,18.52
2022-11-08T11:28:01.085Z,24.30
2022-11-08T11:30:35.664Z,27.23
2022-11-08T11:33:24.813Z,33.90
2022-11-08T11:36:00.322Z,19.33
2022-11-08T11:38:43.805Z,21.80
2022-11-08T11:41:25.970Z,20.30
2022-11-08T11:44:21.645Z,23.60
2022-11-08T11:47:31.560Z,34.97
2022-11-08T11:50:14.855Z,22.55
2022-11-08T11:52:41.501Z,23.50
2022-11-08T11:55:19.799Z,15.65
2022-11-08T11:58:24.966Z,23.98
2022-11-08T12:01:01.396Z,16.48
2022-11-08T12:03:56.596Z,29.23
2022-11-08T12:07:14.580Z,24.38
2022-11-08T12:09:49.908Z,33.00
2022-11-08T12:12:28.601Z,30.48
2022-11-08T12:15:14.139Z,28.50
2022-11-08T12:18:42.155Z,22.05
2022-11-08T12:21:09.163Z,83.97
2022-11-08T12:24:16.350Z,29.23
2022-11-08T12:26:53.274Z,27.27
2022-11-08T12:29:33.254Z,24.55
2022-11-08T12:32:10.061Z,19.15
2022-11-08T12:34:49.592Z,24.95
2022-11-08T12:37:56.777Z,29.35
2022-11-08T12:40:42.040Z,19.02
2022-11-08T12:43:14.631Z,16.60
2022-11-08T12:46:26.174Z,24.88
2022-11-08T12:49:10.345Z,20.73
2022-11-08T12:51:46.500Z,24.20
2022-11-08T12:54:15.916Z,30.00
2022-11-08T12:56:48.572Z,23.85
2022-11-08T12:59:36.503Z,30.27
2022-11-08T13:02:06.466Z,27.02
2022-11-08T13:04:47.459Z,28.60
2022-11-08T13:07:24.345Z,29.75
2022-11-08T13:10:01.932Z,33.40
2022-11-08T13:13:11.815Z,18.08
2022-11-08T13:16:08.904Z,17.98
2022-11-08T13:18:47.413Z,30.08
2022-11-08T13:21:25.916Z,29.17
2022-11-08T13:27:40.683Z,27.77
2022-11-08T13:30:19.453Z,22.83
2022-11-08T13:32:54.178Z,24.60
2022-11-08T13:35:23.962Z,26.85
2022-11-08T13:38:51.397Z,27.17
2022-11-08T13:41:21.055Z,18.55
2022-11-08T13:43:49.103Z,28.80
2022-11-08T13:46:30.944Z,31.02
2022-11-08T13:49:05.279Z,30.05
2022-11-08T13:51:36.737Z,26.15
2022-11-08T13:54:22.738Z,26.48
2022-11-08T13:57:02.672Z,17.00
2022-11-08T13:59:32.748Z,27.23
2022-11-08T14:02:23.996Z,20.60
2022-11-08T14:04:51.230Z,20.92
2022-11-08T14:07:44.415Z,18.88
2022-11-08T14:11:10.668Z,23.73
2022-11-08T14:13:52.567Z,23.60
2022-11-08T14:16:23.501Z,26.85
2022-11-08T14:18:50.862Z,26.20
2022-11-08T14:21:22.679Z,20.73
2022-11-08T14:23:51.010Z,18.77
2022-11-08T14:26:24.166Z,25.40
2022-11-08T14:28:54.083Z,25.00
2022-11-08T14:31:26.414Z,28.55
2022-11-08T14:33:58.054Z,20.00
2022-11-08T14:36:29.857Z,17.38
2022-11-08T14:39:03.918Z,21.08
2022-11-08T14:41:32.494Z,24.52
2022-11-08T14:44:01.657Z,16.23
2022-11-08T14:46:40.389Z,27.65
2022-11-08T14:49:13.821Z,25.05
2022-11-08T14:51:42.195Z,24.95
2022-11-08T14:54:39.530Z,24.80
2022-11-08T14:57:33.611Z,32.65
2022-11-08T15:00:04.789Z,25.65
2022-11-08T15:04:58.506Z,27.38
2022-11-08T15:07:27.014Z,36.15
2022-11-08T15:09:55.294Z,30.55
2022-11-08T15:12:26.314Z,27.10
2022-11-08T15:14:52.924Z,28.17
2022-11-08T15:17:32.834Z,17.40
2022-11-08T15:20:18.405Z,29.48
2022-11-08T15:22:50.129Z,23.48
2022-11-08T15:25:23.753Z,38.63
2022-11-08T15:27:54.454Z,28.08
2022-11-08T15:30:29.799Z,30.23
2022-11-08T15:32:57.239Z,32.13
2022-11-08T15:35:36.763Z,36.03
2022-11-08T15:38:25.343Z,31.00
2022-11-08T15:40:54.919Z,34.10
2022-11-08T15:43:40.956Z,37.83
2022-11-08T15:46:30.338Z,26.83
2022-11-08T15:49:01.883Z,29.13
2022-11-08T15:51:28.722Z,38.40
2022-11-08T15:53:55.281Z,38.10
2022-11-08T15:56:24.694Z,22.23
2022-11-08T15:58:51.277Z,21.63
2022-11-08T16:01:20.737Z,39.30
2022-11-08T16:03:48.501Z,34.45
2022-11-08T16:06:15.444Z,35.70
2022-11-08T16:08:42.409Z,27.23
2022-11-08T16:11:20.483Z,29.08
2022-11-08T16:13:49.829Z,36.40
2022-11-08T16:16:21.518Z,33.53
2022-11-08T16:18:48.142Z,18.75
2022-11-08T16:21:18.177Z,43.53
2022-11-08T16:23:44.715Z,38.42
2022-11-08T16:26:21.504Z,45.92
2022-11-08T16:28:48.085Z,50.47
2022-11-08T16:31:19.328Z,46.00
2022-11-08T16:33:47.147Z,29.98
2022-11-08T16:36:22.027Z,41.90
2022-11-08T16:38:52.136Z,45.10
2022-11-08T16:41:20.167Z,38.67
2022-11-08T16:43:46.790Z,40.78
2022-11-08T16:46:15.866Z,51.95
2022-11-08T16:48:49.308Z,46.22
2022-11-08T16:51:18.921Z,33.65
2022-11-08T16:53:46.531Z,41.53
2022-11-08T16:56:13.289Z,46.20
2022-11-08T16:58:40.240Z,44.42
2022-11-08T17:01:10.708Z,49.55
2022-11-08T17:03:37.402Z,50.75
2022-11-08T17:06:05.962Z,51.95
2022-11-08T17:08:34.210Z,41.90
2022-11-08T17:11:00.944Z,52.63
2022-11-08T17:13:27.497Z,46.70
2022-11-08T17:15:55.319Z,51.88
2022-11-08T17:18:22.094Z,45.47
2022-11-08T17:20:49.147Z,50.03
2022-11-08T17:23:16.542Z,52.97
2022-11-08T17:25:45.260Z,46.28
2022-11-08T17:28:14.002Z,56.83
2022-11-08T17:30:50.459Z,48.47
2022-11-08T17:33:17.580Z,54.50
2022-11-08T17:35:44.752Z,58.80
2022-11-08T17:38:12.464Z,52.95
2022-11-08T17:40:39.272Z,55.33
2022-11-08T17:43:05.772Z,56.55
2022-11-08T17:45:34.993Z,57.15
2022-11-08T17:48:01.450Z,58.30
2022-11-08T17:50:33.104Z,55.55
2022-11-08T17:53:02.867Z,58.88
2022-11-08T17:55:29.378Z,60.65
2022-11-08T17:57:56.741Z,54.50
2022-11-08T18:00:26.220Z,59.00
2022-11-08T18:02:52.957Z,63.58
2022-11-08T18:05:19.524Z,53.78
2022-11-08T18:07:46.356Z,55.30
2022-11-08T18:10:16.776Z,57.45
2022-11-08T18:12:43.552Z,59.85
2022-11-08T18:15:10.615Z,61.10
2022-11-08T18:17:37.338Z,64.88
2022-11-08T18:20:04.264Z,67.47
2022-11-08T18:22:30.951Z,58.78
2022-11-08T18:24:57.636Z,62.47
2022-11-08T18:27:27.297Z,61.78
2022-11-08T18:29:54.008Z,60.83
2022-11-08T18:32:20.565Z,52.70
2022-11-08T18:34:47.405Z,40.08
2022-11-08T18:37:14.043Z,58.47
2022-11-08T18:39:40.751Z,53.10
2022-11-08T18:42:07.328Z,57.17
2022-11-08T18:44:33.868Z,48.03
2022-11-08T18:47:02.512Z,55.80
2022-11-08T18:49:38.022Z,53.15
2022-11-08T18:52:08.780Z,56.40
2022-11-08T18:54:35.486Z,49.53
2022-11-08T18:57:06.140Z,55.70
2022-11-08T18:59:37.623Z,49.92
2022-11-08T19:02:04.512Z,48.22
2022-11-08T19:04:31.077Z,51.90
2022-11-08T19:06:57.809Z,46.05
2022-11-08T19:09:26.276Z,52.55
2022-11-08T19:11:55.860Z,58.78
2022-11-08T19:14:22.817Z,57.70
2022-11-08T19:16:55.988Z,53.88
2022-11-08T19:19:28.806Z,49.25
2022-11-08T19:22:02.787Z,50.97
2022-11-08T19:24:33.518Z,55.85
2022-11-08T19:27:00.344Z,55.97
2022-11-08T19:29:28.277Z,57.90
2022-11-08T19:31:56.905Z,54.15
2022-11-08T19:34:23.496Z,55.72
2022-11-08T19:36:55.680Z,48.47
2022-11-08T19:39:25.333Z,53.22
2022-11-08T19:41:52.069Z,56.30
2022-11-08T19:44:25.675Z,55.85
2022-11-08T19:46:52.191Z,57.65
2022-11-08T19:49:19.849Z,53.58
2022-11-08T19:51:46.326Z,54.17
2022-11-08T19:54:14.926Z,53.67
2022-11-08T19:59:28.098Z,65.18
2022-11-08T20:01:57.154Z,65.38
2022-11-08T20:04:23.802Z,60.08
2022-11-08T20:06:50.473Z,59.95
2022-11-08T20:09:19.988Z,57.83
2022-11-08T20:11:49.619Z,56.85
2022-11-08T20:14:16.214Z,65.07
2022-11-08T20:16:44.997Z,51.40
2022-11-08T20:19:16.687Z,63.15
2022-11-08T20:21:46.043Z,62.85
2022-11-08T20:24:16.313Z,56.97
2022-11-08T20:26:43.732Z,62.60
2022-11-08T20:29:10.905Z,61.15
2022-11-08T20:31:38.824Z,60.53
2022-11-08T20:34:09.894Z,65.47
2022-11-08T20:36:41.052Z,64.83
2022-11-08T20:39:08.215Z,63.03
2022-11-08T20:41:41.029Z,58.97
2022-11-08T20:44:10.059Z,63.50
2022-11-08T20:46:37.694Z,67.75
2022-11-08T20:49:05.347Z,64.57
2022-11-08T20:51:33.380Z,61.97
2022-11-08T20:54:01.889Z,64.13
2022-11-08T20:56:32.131Z,67.65
2022-11-08T20:58:58.890Z,62.78
2022-11-08T21:01:30.062Z,68.57
2022-11-08T21:03:57.179Z,62.13
2022-11-08T21:06:26.047Z,69.28
2022-11-08T21:09:05.229Z,67.70
2022-11-08T21:11:36.890Z,63.63
2022-11-08T21:14:05.143Z,65.57
2022-11-08T21:16:52.843Z,58.40
2022-11-08T21:19:19.998Z,61.75
2022-11-08T21:21:49.473Z,64.65
2022-11-08T21:24:17.082Z,66.13
2022-11-08T21:26:43.660Z,63.83
2022-11-08T21:29:10.867Z,64.50
2022-11-08T21:31:37.447Z,81.85
2022-11-08T21:34:06.936Z,60.33
2022-11-08T21:36:40.143Z,62.33
2022-11-08T21:39:08.425Z,65.60
2022-11-08T21:41:40.641Z,64.15
2022-11-08T21:44:08.445Z,61.28
2022-11-08T21:46:35.734Z,65.00
2022-11-08T21:49:05.350Z,69.60
2022-11-08T21:51:32.309Z,65.40
2022-11-08T21:54:00.580Z,67.90
2022-11-08T21:56:34.696Z,65.07
2022-11-08T21:59:03.699Z,70.15
2022-11-08T22:01:34.359Z,67.45
2022-11-08T22:04:01.299Z,61.70
2022-11-08T22:06:28.878Z,64.15
2022-11-08T22:08:56.551Z,44.92
2022-11-08T22:11:24.212Z,65.05
2022-11-08T22:13:55.130Z,58.95
2022-11-08T22:16:21.782Z,73.85
2022-11-08T22:19:04.048Z,74.35
2022-11-08T22:21:37.938Z,69.25
2022-11-08T22:24:14.679Z,67.55
2022-11-08T22:26:41.712Z,68.78
2022-11-08T22:29:09.109Z,66.40
2022-11-08T22:31:38.863Z,66.85
2022-11-08T22:34:08.177Z,65.22
2022-11-08T22:36:38.707Z,59.85
2022-11-08T22:39:09.834Z,67.07
2022-11-08T22:41:36.477Z,70.13
2022-11-08T22:44:10.505Z,64.68
2022-11-08T22:46:38.620Z,65.78
2022-11-08T22:49:05.291Z,64.97
2022-11-08T22:51:32.539Z,65.55
2022-11-08T22:53:59.167Z,66.47
2022-11-08T22:56:25.931Z,63.13
2022-11-08T22:58:52.562Z,66.60
2022-11-08T23:01:23.369Z,66.28
2022-11-08T23:03:51.637Z,69.35
2022-11-08T23:06:21.257Z,70.88
2022-11-08T23:08:50.030Z,70.60
2022-11-08T23:11:36.386Z,62.53
2022-11-08T23:14:23.563Z,66.45
2022-11-08T23:16:50.458Z,63.30
2022-11-08T23:19:41.208Z,63.90
2022-11-08T23:22:33.390Z,68.80
2022-11-08T23:25:00.156Z,71.45
2022-11-08T23:27:47.089Z,68.25
2022-11-08T23:30:35.670Z,71.63
2022-11-08T23:33:04.864Z,62.38
2022-11-08T23:35:34.949Z,65.32
2022-11-08T23:38:02.235Z,67.32
2022-11-08T23:40:47.386Z,61.80
2022-11-08T23:43:35.747Z,61.97
2022-11-08T23:46:11.265Z,71.25
2022-11-08T23:48:39.907Z,66.57
2022-11-08T23:51:07.446Z,64.57
2022-11-08T23:53:37.270Z,65.30
2022-11-08T23:56:09.809Z,60.17
2022-11-08T23:58:42.788Z,69.25
